Time;durP1;ratioP1;P1;durP2;ratioP2;P2;SDS_P1;SDS_P2;PMS_P1;PMS_P2;Temp;Humidity;BMP_temperature;BMP_pressure;BME280_temperature;BME280_humidity;BME280_pressure;Samples;Min_cycle;Max_cycle;Signal;HPM_P1;HPM_P2
2021/04/11 00:00:11;;;;;;;9.07;4.07;;;4.90;99.90;;;;;;5009446;28;20471;-79
2021/04/11 00:02:40;;;;;;;9.33;4.50;;;4.90;99.90;;;;;;4994907;28;20481;-79
2021/04/11 00:05:12;;;;;;;5.53;3.83;;;5.00;99.90;;;;;;4994610;28;20484;-79
2021/04/11 00:07:40;;;;;;;8.17;4.33;;;5.00;99.90;;;;;;4994958;28;20477;-79
2021/04/11 00:10:12;;;;;;;13.93;5.23;;;5.00;99.90;;;;;;4995442;28;20848;-79
2021/04/11 00:12:39;;;;;;;8.57;5.00;;;5.00;99.90;;;;;;5009144;28;20476;-78
2021/04/11 00:15:09;;;;;;;11.43;5.63;;;5.10;99.90;;;;;;5012521;28;20495;-78
2021/04/11 00:17:36;;;;;;;9.83;6.17;;;5.10;99.90;;;;;;5012658;28;20999;-79
2021/04/11 00:20:07;;;;;;;10.73;6.50;;;5.10;99.90;;;;;;5013731;28;21394;-79
2021/04/11 00:22:34;;;;;;;12.50;6.63;;;5.10;99.90;;;;;;5010014;28;20680;-79
2021/04/11 00:25:02;;;;;;;12.67;7.23;;;5.10;99.90;;;;;;5009096;28;20275;-79
2021/04/11 00:27:30;;;;;;;11.87;7.37;;;5.10;99.90;;;;;;5034795;28;21023;-79
2021/04/11 00:29:57;;;;;;;12.10;8.53;;;5.10;99.90;;;;;;4990594;28;20241;-79
2021/04/11 00:32:24;;;;;;;12.07;8.73;;;5.10;99.90;;;;;;4968629;28;20268;-79
2021/04/11 00:34:52;;;;;;;13.53;10.00;;;5.10;99.90;;;;;;4974221;28;20241;-79
2021/04/11 00:37:20;;;;;;;13.07;9.43;;;5.10;99.90;;;;;;4976249;28;20253;-79
2021/04/11 00:39:48;;;;;;;15.10;10.67;;;5.20;99.90;;;;;;4975342;28;20295;-79
2021/04/11 00:42:30;;;;;;;16.80;11.03;;;5.20;99.90;;;;;;4964092;28;20242;-79
2021/04/11 00:45:19;;;;;;;16.23;11.37;;;5.20;99.90;;;;;;4957560;28;20594;-79
2021/04/11 00:47:46;;;;;;;14.73;11.27;;;5.20;99.90;;;;;;4984238;28;20242;-79
2021/04/11 00:50:17;;;;;;;15.17;12.03;;;5.20;99.90;;;;;;4971898;28;21044;-79
2021/04/11 00:52:46;;;;;;;16.63;12.40;;;5.20;99.90;;;;;;4967433;28;20474;-79
2021/04/11 00:55:16;;;;;;;13.10;11.60;;;5.20;99.90;;;;;;4974164;28;20830;-79
2021/04/11 00:57:48;;;;;;;17.33;12.87;;;5.30;99.90;;;;;;4975320;28;20644;-79
2021/04/11 01:00:17;;;;;;;15.13;12.40;;;5.30;99.90;;;;;;4969135;28;20238;-79
2021/04/11 01:02:45;;;;;;;16.23;12.97;;;5.30;99.90;;;;;;4970849;28;20605;-79
2021/04/11 01:05:18;;;;;;;14.27;12.43;;;5.30;99.90;;;;;;4979542;28;20517;-79
2021/04/11 01:07:48;;;;;;;15.97;12.90;;;5.30;99.90;;;;;;4954643;28;20317;-79
2021/04/11 01:10:21;;;;;;;14.70;12.33;;;5.30;99.90;;;;;;4984181;28;20470;-79
2021/04/11 01:12:49;;;;;;;15.20;12.87;;;5.40;99.90;;;;;;4987931;28;20489;-79
2021/04/11 01:15:22;;;;;;;14.00;12.47;;;5.40;99.90;;;;;;4973789;28;20678;-79
2021/04/11 01:17:50;;;;;;;13.47;12.07;;;5.40;99.90;;;;;;4961603;28;20489;-79
2021/04/11 01:20:20;;;;;;;15.20;11.67;;;5.40;99.90;;;;;;4956739;28;20250;-79
2021/04/11 01:23:07;;;;;;;14.20;12.13;;;5.50;99.90;;;;;;4977388;28;21032;-79
2021/04/11 01:25:37;;;;;;;16.07;12.20;;;5.50;99.90;;;;;;4982433;28;20473;-79
2021/04/11 01:28:10;;;;;;;13.07;11.20;;;5.50;99.90;;;;;;5003356;28;20228;-79
2021/04/11 01:30:41;;;;;;;15.80;12.00;;;5.50;99.90;;;;;;5024673;28;20483;-79
2021/04/11 01:33:13;;;;;;;12.33;11.03;;;5.50;99.90;;;;;;5013949;28;20260;-79
2021/04/11 01:35:42;;;;;;;11.77;10.67;;;5.60;99.90;;;;;;5005551;28;20483;-79
2021/04/11 01:38:11;;;;;;;11.53;10.33;;;5.60;99.90;;;;;;4995017;28;20727;-78
2021/04/11 01:40:46;;;;;;;11.57;10.33;;;5.60;99.90;;;;;;5001365;28;20242;-79
2021/04/11 01:43:15;;;;;;;12.70;10.77;;;5.60;99.90;;;;;;5005790;28;20464;-79
2021/04/11 01:45:45;;;;;;;12.90;10.93;;;5.60;99.90;;;;;;5007525;28;20476;-79
2021/04/11 01:48:16;;;;;;;10.97;9.87;;;5.60;99.90;;;;;;5025963;28;20240;-79
2021/04/11 01:50:45;;;;;;;12.27;10.63;;;5.60;99.90;;;;;;5005901;28;20237;-79
2021/04/11 01:53:14;;;;;;;12.50;10.53;;;5.70;99.90;;;;;;5028344;28;20240;-79
2021/04/11 01:55:43;;;;;;;11.47;10.17;;;5.70;99.90;;;;;;5012112;28;20229;-79
2021/04/11 01:58:12;;;;;;;12.47;10.57;;;5.70;99.90;;;;;;5013790;28;20295;-79
2021/04/11 02:00:49;;;;;;;12.67;10.07;;;5.70;99.90;;;;;;5011442;28;20507;-79
2021/04/11 02:03:19;;;;;;;12.07;10.13;;;5.70;99.90;;;;;;5027014;28;20995;-79
2021/04/11 02:05:49;;;;;;;11.47;10.17;;;5.80;99.90;;;;;;5013649;28;20243;-79
2021/04/11 02:08:24;;;;;;;11.77;9.90;;;5.90;99.90;;;;;;5013823;28;20258;-79
2021/04/11 02:10:56;;;;;;;12.40;10.57;;;5.90;99.90;;;;;;5009434;28;20332;-79
2021/04/11 02:13:36;;;;;;;12.10;10.30;;;5.90;99.90;;;;;;5022326;28;20244;-79
2021/04/11 02:16:26;;;;;;;11.50;10.30;;;5.90;99.90;;;;;;5027885;28;21076;-79
2021/04/11 02:18:59;;;;;;;14.83;10.87;;;5.90;99.90;;;;;;5012115;28;20266;-79
2021/04/11 02:21:28;;;;;;;12.13;10.73;;;6.00;99.90;;;;;;5027519;28;20295;-79
2021/04/11 02:23:59;;;;;;;12.97;11.57;;;6.00;99.90;;;;;;5027618;28;20315;-79
2021/04/11 02:26:31;;;;;;;13.23;11.27;;;6.00;99.90;;;;;;5044167;28;20279;-79
2021/04/11 02:29:07;;;;;;;14.37;11.60;;;6.00;99.90;;;;;;5033871;28;20323;-79
2021/04/11 02:31:35;;;;;;;14.70;11.70;;;6.00;99.90;;;;;;5012765;28;20233;-79
2021/04/11 02:34:13;;;;;;;14.67;12.50;;;6.10;99.90;;;;;;4992028;28;20772;-78
2021/04/11 02:36:46;;;;;;;15.00;12.37;;;6.10;99.90;;;;;;5024574;28;20503;-79
2021/04/11 02:39:19;;;;;;;14.00;12.40;;;6.20;99.90;;;;;;5015055;28;20272;-79
2021/04/11 02:41:49;;;;;;;14.97;12.07;;;6.20;99.90;;;;;;5013510;28;20283;-79
2021/04/11 02:44:19;;;;;;;15.37;12.50;;;6.20;99.90;;;;;;5013024;28;20776;-79
2021/04/11 02:46:48;;;;;;;17.10;12.93;;;6.20;99.90;;;;;;5010079;28;20233;-79
2021/04/11 02:49:20;;;;;;;15.47;12.87;;;6.20;99.90;;;;;;5028812;28;20618;-79
2021/04/11 02:51:49;;;;;;;16.97;12.80;;;6.20;99.90;;;;;;5015859;28;20320;-79
2021/04/11 02:54:22;;;;;;;16.07;13.63;;;6.30;99.90;;;;;;5028551;28;20490;-79
2021/04/11 02:56:59;;;;;;;16.40;13.93;;;6.30;99.90;;;;;;5009868;28;20234;-79
2021/04/11 02:59:33;;;;;;;16.80;13.60;;;6.30;99.90;;;;;;5011498;28;20233;-79
2021/04/11 03:02:04;;;;;;;19.63;13.90;;;6.40;99.90;;;;;;5012492;28;20308;-79
2021/04/11 03:04:36;;;;;;;17.27;14.80;;;6.40;99.90;;;;;;5004338;28;20247;-79
2021/04/11 03:07:11;;;;;;;15.70;13.83;;;6.40;99.90;;;;;;5031715;28;20245;-79
2021/04/11 03:09:45;;;;;;;18.53;15.33;;;6.40;99.90;;;;;;5013845;28;20241;-79
2021/04/11 03:12:19;;;;;;;18.60;14.33;;;6.40;99.90;;;;;;5014847;28;20240;-79
2021/04/11 03:14:48;;;;;;;17.37;14.77;;;6.50;99.90;;;;;;5015639;28;20566;-79
2021/04/11 03:17:23;;;;;;;18.43;15.37;;;6.50;99.90;;;;;;5016229;28;20239;-79
2021/04/11 03:20:01;;;;;;;19.47;15.67;;;6.50;99.90;;;;;;5014529;28;20240;-78
2021/04/11 03:22:31;;;;;;;19.50;16.43;;;6.50;99.90;;;;;;5024344;28;20249;-79
2021/04/11 03:25:00;;;;;;;21.27;17.17;;;6.50;99.90;;;;;;5029055;28;20343;-79
2021/04/11 03:27:37;;;;;;;18.57;16.07;;;6.60;99.90;;;;;;5014202;28;20237;-78
2021/04/11 03:30:13;;;;;;;19.10;16.57;;;6.60;99.90;;;;;;5016543;28;20295;-79
2021/04/11 03:32:45;;;;;;;20.00;17.83;;;6.60;99.90;;;;;;5003573;28;20237;-79
2021/04/11 03:35:16;;;;;;;22.20;18.17;;;6.60;99.90;;;;;;5010779;28;20230;-79
2021/04/11 03:37:47;;;;;;;23.67;20.40;;;6.60;99.90;;;;;;5031572;28;20236;-79
2021/04/11 03:40:20;;;;;;;25.37;20.43;;;6.70;99.90;;;;;;5017036;28;20233;-79
2021/04/11 03:42:51;;;;;;;22.17;18.50;;;6.80;99.90;;;;;;5023008;28;20229;-80
2021/04/11 03:45:22;;;;;;;23.20;18.97;;;6.80;99.90;;;;;;5011092;28;20245;-79
2021/04/11 03:47:55;;;;;;;24.07;20.10;;;6.90;99.90;;;;;;5016810;28;20233;-79
2021/04/11 03:50:30;;;;;;;26.27;21.40;;;6.90;99.90;;;;;;5030206;28;20287;-79
2021/04/11 03:53:10;;;;;;;29.40;22.57;;;6.90;99.90;;;;;;5014435;28;20233;-79
2021/04/11 03:55:46;;;;;;;26.47;22.33;;;6.90;99.90;;;;;;5007855;28;20245;-79
2021/04/11 03:58:27;;;;;;;27.03;22.50;;;6.90;99.90;;;;;;5024678;28;20236;-79
2021/04/11 04:01:05;;;;;;;28.27;22.93;;;6.90;99.90;;;;;;5047920;28;20240;-80
2021/04/11 04:03:38;;;;;;;28.00;22.40;;;6.90;99.90;;;;;;5025093;28;20684;-79
2021/04/11 04:06:11;;;;;;;26.90;23.47;;;7.00;99.90;;;;;;5012512;28;20253;-79
2021/04/11 04:08:38;;;;;;;28.37;24.00;;;7.00;99.90;;;;;;5016007;28;20241;-80
2021/04/11 04:11:43;;;;;;;27.53;23.13;;;7.00;99.90;;;;;;5010792;28;20256;-79
2021/04/11 04:14:24;;;;;;;26.90;22.47;;;7.00;99.90;;;;;;4995793;28;20591;-79
2021/04/11 04:17:04;;;;;;;31.33;24.40;;;7.00;99.90;;;;;;5014864;28;20316;-77
2021/04/11 04:19:47;;;;;;;28.80;23.03;;;7.00;99.90;;;;;;5014443;28;20237;-80
2021/04/11 04:22:38;;;;;;;29.23;22.73;;;7.00;99.90;;;;;;5012908;28;20244;-79
2021/04/11 04:25:33;;;;;;;30.73;23.30;;;7.00;99.90;;;;;;4994834;28;20253;-79
2021/04/11 04:28:21;;;;;;;28.97;23.90;;;7.10;99.90;;;;;;5011185;28;20253;-80
2021/04/11 04:30:58;;;;;;;29.83;23.73;;;7.10;99.90;;;;;;5002757;28;20237;-79
2021/04/11 04:33:53;;;;;;;27.57;22.30;;;7.20;99.90;;;;;;4996772;28;20730;-79
2021/04/11 04:36:39;;;;;;;27.50;23.50;;;7.20;99.90;;;;;;5013247;28;20731;-80
2021/04/11 04:39:34;;;;;;;28.50;24.13;;;7.20;99.90;;;;;;5027096;28;20243;-78
2021/04/11 04:42:17;;;;;;;29.73;25.20;;;7.20;99.90;;;;;;5027818;28;20705;-80
2021/04/11 04:45:07;;;;;;;29.87;23.43;;;7.20;99.90;;;;;;5029618;28;20268;-79
2021/04/11 04:47:52;;;;;;;27.93;23.40;;;7.20;99.90;;;;;;5019858;28;20232;-78
2021/04/11 04:50:25;;;;;;;31.70;25.73;;;7.30;99.90;;;;;;5004518;28;20284;-77
2021/04/11 04:53:08;;;;;;;29.50;24.87;;;7.30;99.90;;;;;;4997253;28;20586;-79
2021/04/11 04:55:39;;;;;;;29.70;25.53;;;7.30;99.90;;;;;;4994692;28;20276;-79
2021/04/11 04:58:12;;;;;;;32.23;25.50;;;7.30;99.90;;;;;;5011356;28;20233;-79
2021/04/11 05:00:50;;;;;;;32.17;26.27;;;7.30;99.90;;;;;;4994442;28;20240;-79
2021/04/11 05:03:33;;;;;;;33.43;28.33;;;7.30;99.90;;;;;;5024212;28;20318;-78
2021/04/11 05:06:15;;;;;;;35.07;26.47;;;7.40;99.90;;;;;;5009089;28;20243;-79
2021/04/11 05:08:59;;;;;;;33.27;28.80;;;7.40;99.90;;;;;;5012967;28;20296;-79
2021/04/11 05:11:32;;;;;;;33.67;28.30;;;7.40;99.90;;;;;;5012106;28;20248;-79
2021/04/11 05:14:06;;;;;;;35.20;28.40;;;7.40;99.90;;;;;;5010389;28;20305;-78
2021/04/11 05:16:39;;;;;;;35.23;28.87;;;7.50;99.90;;;;;;5007832;28;20320;-79
2021/04/11 05:19:14;;;;;;;34.67;28.73;;;7.50;99.90;;;;;;5029729;28;20248;-78
2021/04/11 05:22:17;;;;;;;33.70;27.47;;;7.50;99.90;;;;;;5011828;28;20296;-77
2021/04/11 05:24:49;;;;;;;35.00;28.13;;;7.50;99.90;;;;;;5028201;28;20288;-78
2021/04/11 05:27:30;;;;;;;36.33;28.60;;;7.50;99.90;;;;;;5029584;28;20240;-79
2021/04/11 05:30:08;;;;;;;35.13;28.33;;;7.60;99.90;;;;;;5025504;28;20233;-77
2021/04/11 05:32:35;;;;;;;34.50;28.10;;;7.60;99.90;;;;;;5008927;28;20625;-77
2021/04/11 05:35:05;;;;;;;35.13;28.80;;;7.60;99.90;;;;;;5009671;28;20317;-78
2021/04/11 05:37:42;;;;;;;37.03;29.67;;;7.70;99.90;;;;;;5008460;28;20233;-78
2021/04/11 05:40:17;;;;;;;36.37;29.63;;;7.70;99.90;;;;;;5006978;28;20241;-78
2021/04/11 05:42:55;;;;;;;35.63;29.63;;;7.70;99.90;;;;;;4993598;28;21271;-79
2021/04/11 05:45:26;;;;;;;36.20;30.23;;;7.70;99.90;;;;;;5014273;28;20232;-77
2021/04/11 05:48:18;;;;;;;35.87;30.77;;;7.80;99.90;;;;;;5011151;28;20237;-78
2021/04/11 05:50:59;;;;;;;37.17;30.93;;;7.80;99.90;;;;;;5002007;28;20325;-77
2021/04/11 05:53:36;;;;;;;36.20;30.50;;;7.80;99.90;;;;;;4994385;28;20242;-79
2021/04/11 05:56:08;;;;;;;35.30;30.47;;;7.80;99.90;;;;;;5008367;28;20288;-79
2021/04/11 05:58:41;;;;;;;39.70;32.17;;;7.80;99.90;;;;;;5003941;28;20241;-79
2021/04/11 06:01:14;;;;;;;39.83;30.87;;;7.80;99.90;;;;;;5003198;28;20241;-77
2021/04/11 06:03:49;;;;;;;36.67;31.70;;;7.90;99.90;;;;;;5011415;28;20319;-79
2021/04/11 06:06:24;;;;;;;39.80;32.47;;;7.90;99.90;;;;;;5012182;28;20237;-79
2021/04/11 06:09:02;;;;;;;40.13;32.73;;;7.90;99.90;;;;;;5030586;28;20239;-78
2021/04/11 06:11:38;;;;;;;38.60;32.97;;;7.90;99.90;;;;;;4999468;28;20252;-79
2021/04/11 06:14:12;;;;;;;38.80;32.87;;;8.00;99.90;;;;;;4992462;28;20729;-78
2021/04/11 06:16:39;;;;;;;37.63;32.00;;;8.00;99.90;;;;;;4993856;28;20238;-78
2021/04/11 06:19:09;;;;;;;39.53;32.73;;;8.00;99.90;;;;;;4996991;28;20244;-79
2021/04/11 06:21:58;;;;;;;41.83;33.60;;;8.00;99.90;;;;;;4996720;28;20241;-79
2021/04/11 06:24:46;;;;;;;37.60;32.07;;;8.10;99.90;;;;;;4992525;28;20776;-79
2021/04/11 06:27:33;;;;;;;41.53;33.80;;;8.10;99.90;;;;;;4992416;28;20733;-79
2021/04/11 06:30:08;;;;;;;43.63;35.07;;;8.10;99.90;;;;;;5004773;28;20225;-80
2021/04/11 06:32:43;;;;;;;38.83;31.90;;;8.10;99.90;;;;;;5008053;28;20852;-79
2021/04/11 06:35:13;;;;;;;39.10;32.90;;;8.10;99.90;;;;;;5009799;28;20244;-79
2021/04/11 06:37:46;;;;;;;41.93;34.57;;;8.20;99.90;;;;;;5010348;28;20673;-78
2021/04/11 06:40:32;;;;;;;42.40;34.40;;;8.20;99.90;;;;;;5021590;28;20238;-80
2021/04/11 06:43:46;;;;;;;43.97;36.03;;;8.20;99.90;;;;;;5012387;28;20229;-78
2021/04/11 06:46:24;;;;;;;42.97;33.43;;;8.20;99.90;;;;;;4988761;28;20658;-78
2021/04/11 06:49:19;;;;;;;42.27;34.97;;;8.20;99.90;;;;;;5009085;28;20241;-79
2021/04/11 06:52:18;;;;;;;41.77;33.30;;;8.20;99.90;;;;;;5014816;28;20314;-80
2021/04/11 06:55:34;;;;;;;43.63;34.63;;;8.20;99.90;;;;;;5010279;28;20237;-80
2021/04/11 06:58:15;;;;;;;42.60;34.30;;;8.20;99.90;;;;;;5007009;28;20256;-79
2021/04/11 07:01:25;;;;;;;42.20;34.40;;;8.20;99.90;;;;;;5004932;28;20232;-79
2021/04/11 07:04:55;;;;;;;39.87;33.10;;;8.30;99.90;;;;;;4987071;28;20252;-79
2021/04/11 07:08:26;;;;;;;38.53;31.23;;;8.30;99.90;;;;;;5005546;28;20620;-79
2021/04/11 07:11:46;;;;;;;40.97;33.37;;;8.40;99.90;;;;;;4956335;28;20242;-79
2021/04/11 07:15:05;;;;;;;41.67;33.10;;;8.40;99.90;;;;;;5004133;28;20240;-79
2021/04/11 07:18:10;;;;;;;38.17;32.13;;;8.40;99.90;;;;;;4976488;28;20248;-80
2021/04/11 07:21:21;;;;;;;40.33;33.07;;;8.40;99.90;;;;;;5005594;28;20695;-78
2021/04/11 07:24:42;;;;;;;40.23;32.23;;;8.50;99.90;;;;;;5006757;28;20284;-80
2021/04/11 07:27:21;;;;;;;38.80;30.60;;;8.50;99.90;;;;;;5007573;28;20250;-79
2021/04/11 07:30:20;;;;;;;36.13;30.13;;;8.70;99.90;;;;;;5008094;28;20337;-79
2021/04/11 07:33:12;;;;;;;35.90;30.50;;;8.70;99.90;;;;;;5006798;28;20246;-80
2021/04/11 07:36:01;;;;;;;38.10;32.17;;;8.80;99.90;;;;;;5011215;28;20265;-79
2021/04/11 07:38:47;;;;;;;36.43;29.83;;;8.80;99.90;;;;;;5009968;28;20319;-78
2021/04/11 07:41:39;;;;;;;36.07;29.47;;;8.90;99.90;;;;;;5010822;28;20302;-79
2021/04/11 07:44:30;;;;;;;34.90;29.83;;;8.90;99.90;;;;;;5012713;28;20701;-79
2021/04/11 07:47:20;;;;;;;33.50;27.90;;;9.00;99.90;;;;;;5012380;28;20829;-79
2021/04/11 07:50:29;;;;;;;36.00;30.07;;;9.10;99.90;;;;;;5013047;28;20237;-79
2021/04/11 07:53:20;;;;;;;34.03;29.10;;;9.30;99.90;;;;;;5004856;28;20299;-79
2021/04/11 07:56:07;;;;;;;31.70;26.67;;;9.40;99.90;;;;;;5007209;28;20292;-80
2021/04/11 07:59:00;;;;;;;29.73;25.40;;;9.40;99.90;;;;;;5011977;28;21639;-80
2021/04/11 08:01:47;;;;;;;26.63;23.73;;;9.40;99.90;;;;;;5008740;28;20248;-79
2021/04/11 08:04:44;;;;;;;24.40;21.23;;;9.30;99.90;;;;;;5011347;28;20294;-79
2021/04/11 08:07:31;;;;;;;24.73;21.63;;;9.40;99.90;;;;;;5008689;28;20260;-80
2021/04/11 08:10:12;;;;;;;25.17;22.47;;;9.40;99.90;;;;;;5009504;28;20317;-80
2021/04/11 08:13:26;;;;;;;24.03;21.43;;;9.40;99.90;;;;;;5010803;28;20227;-82
2021/04/11 08:16:04;;;;;;;21.53;19.20;;;9.40;99.90;;;;;;5010040;28;20245;-82
2021/04/11 08:19:10;;;;;;;20.90;18.73;;;9.40;99.90;;;;;;5011909;28;20964;-83
2021/04/11 08:21:43;;;;;;;22.77;20.37;;;9.40;99.90;;;;;;5011856;28;20253;-83
2021/04/11 08:24:33;;;;;;;23.93;20.70;;;9.40;99.90;;;;;;5009014;28;20237;-83
2021/04/11 08:27:55;;;;;;;27.63;23.73;;;9.40;99.90;;;;;;5011720;28;20249;-83
2021/04/11 08:30:56;;;;;;;28.67;24.97;;;9.30;99.90;;;;;;4997080;28;20233;-82
2021/04/11 08:33:56;;;;;;;32.17;27.00;;;9.30;99.90;;;;;;5011741;28;21460;-83
2021/04/11 08:37:09;;;;;;;32.53;27.07;;;9.40;99.90;;;;;;5010261;28;20241;-83
2021/04/11 08:39:55;;;;;;;35.60;30.13;;;9.70;99.90;;;;;;5013513;28;20249;-84
2021/04/11 08:43:07;;;;;;;33.53;29.77;;;9.80;99.90;;;;;;5012156;28;20245;-84
2021/04/11 08:45:49;;;;;;;33.17;29.63;;;9.90;99.90;;;;;;5019119;28;20241;-83
2021/04/11 08:48:44;;;;;;;32.70;28.30;;;9.90;99.90;;;;;;5013138;28;20760;-83
2021/04/11 08:51:27;;;;;;;30.73;27.23;;;9.80;99.90;;;;;;4992503;28;20249;-82
2021/04/11 08:54:11;;;;;;;28.27;25.27;;;9.70;99.90;;;;;;4999456;28;20235;-81
2021/04/11 08:56:42;;;;;;;23.57;20.77;;;9.70;99.90;;;;;;5006076;28;20238;-83
2021/04/11 08:59:49;;;;;;;19.47;17.47;;;9.60;99.90;;;;;;5007740;28;20243;-83
2021/04/11 09:02:47;;;;;;;18.93;17.03;;;9.50;99.90;;;;;;5003796;28;20281;-82
2021/04/11 09:05:28;;;;;;;17.03;15.33;;;9.40;99.90;;;;;;5022419;28;20229;-82
2021/04/11 09:08:11;;;;;;;16.30;14.57;;;9.40;99.90;;;;;;5017896;28;20247;-83
2021/04/11 09:11:16;;;;;;;15.30;13.80;;;9.30;99.90;;;;;;5014022;28;20717;-83
2021/04/11 09:14:11;;;;;;;13.20;11.90;;;9.50;99.90;;;;;;5010525;28;20245;-82
2021/04/11 09:16:51;;;;;;;13.23;11.87;;;9.70;99.90;;;;;;5004951;28;20246;-82
2021/04/11 09:19:27;;;;;;;12.57;11.37;;;9.70;99.90;;;;;;5005162;28;20244;-84
2021/04/11 09:22:13;;;;;;;10.27;9.27;;;9.60;99.90;;;;;;5016928;28;20309;-82
2021/04/11 09:24:47;;;;;;;10.43;9.47;;;9.40;99.90;;;;;;5008609;28;20233;-82
2021/04/11 09:28:01;;;;;;;10.70;9.70;;;9.30;99.90;;;;;;5019716;28;20616;-82
2021/04/11 09:30:55;;;;;;;10.20;9.20;;;9.20;99.90;;;;;;4983919;28;20738;-82
2021/04/11 09:33:41;;;;;;;10.10;9.20;;;9.20;99.90;;;;;;5010679;28;20276;-83
2021/04/11 09:36:20;;;;;;;9.70;8.80;;;9.30;99.90;;;;;;5004847;28;20247;-82
2021/04/11 09:39:23;;;;;;;10.60;9.50;;;9.40;99.90;;;;;;5013882;28;20288;-83
2021/04/11 09:42:22;;;;;;;10.17;9.23;;;9.50;99.90;;;;;;4977553;28;20251;-83
2021/04/11 09:45:36;;;;;;;11.10;10.00;;;9.60;99.90;;;;;;5004829;28;20299;-83
2021/04/11 09:48:32;;;;;;;10.43;9.50;;;9.40;99.90;;;;;;5002712;28;20241;-83
2021/04/11 09:51:18;;;;;;;10.37;9.37;;;9.40;99.90;;;;;;5007026;28;20297;-82
2021/04/11 09:54:27;;;;;;;10.23;9.17;;;9.30;99.90;;;;;;5009346;28;20233;-82
2021/04/11 09:57:57;;;;;;;10.03;9.03;;;9.40;99.90;;;;;;5013979;28;20897;-82
2021/04/11 10:00:34;;;;;;;7.80;7.10;;;9.40;99.90;;;;;;4937926;28;20318;-81
2021/04/11 10:03:29;;;;;;;6.40;5.80;;;9.10;99.90;;;;;;5025704;28;20320;-82
2021/04/11 10:06:15;;;;;;;7.50;6.63;;;9.00;99.90;;;;;;5010079;28;20300;-83
2021/04/11 10:09:14;;;;;;;6.53;5.93;;;9.00;99.90;;;;;;5007801;28;20334;-82
2021/04/11 10:12:07;;;;;;;6.80;6.10;;;9.10;99.90;;;;;;5021423;28;20763;-82
2021/04/11 10:14:48;;;;;;;7.37;6.67;;;9.00;99.90;;;;;;5004044;28;20244;-82
2021/04/11 10:17:40;;;;;;;7.10;6.40;;;9.00;99.90;;;;;;5001641;28;20323;-81
2021/04/11 10:20:17;;;;;;;7.17;6.47;;;8.90;99.90;;;;;;5002906;28;20313;-82
2021/04/11 10:22:52;;;;;;;7.63;6.87;;;8.90;99.90;;;;;;5009583;28;20244;-81
2021/04/11 10:25:36;;;;;;;10.37;7.13;;;8.80;99.90;;;;;;5011975;28;20241;-84
2021/04/11 10:28:15;;;;;;;7.83;7.03;;;8.70;99.90;;;;;;5014646;28;20232;-82
2021/04/11 10:30:54;;;;;;;6.80;6.20;;;8.60;99.90;;;;;;5029372;28;20244;-83
2021/04/11 10:33:32;;;;;;;7.00;6.30;;;8.50;99.90;;;;;;5012712;28;20236;-82
2021/04/11 10:36:08;;;;;;;6.30;5.70;;;8.40;99.90;;;;;;5021805;28;20257;-83
2021/04/11 10:38:43;;;;;;;6.83;6.13;;;8.30;99.90;;;;;;5005011;28;20287;-83
2021/04/11 10:41:31;;;;;;;6.47;5.87;;;8.40;99.90;;;;;;5026937;28;20284;-82
2021/04/11 10:44:17;;;;;;;6.23;5.63;;;8.40;99.90;;;;;;5024313;28;20233;-80
2021/04/11 10:47:04;;;;;;;6.63;5.60;;;8.40;99.90;;;;;;5006005;28;20241;-80
2021/04/11 10:49:46;;;;;;;7.60;6.33;;;8.50;99.90;;;;;;5007158;28;20307;-80
2021/04/11 10:52:39;;;;;;;7.37;4.80;;;8.50;99.90;;;;;;5015301;28;20631;-80
2021/04/11 10:55:40;;;;;;;8.53;5.53;;;8.40;99.90;;;;;;5013273;28;20252;-80
2021/04/11 10:59:11;;;;;;;6.63;5.97;;;8.30;99.90;;;;;;4977114;28;20241;-80
2021/04/11 11:02:09;;;;;;;8.70;5.70;;;8.20;99.90;;;;;;4997680;28;20232;-80
2021/04/11 11:05:06;;;;;;;5.03;4.63;;;8.00;99.90;;;;;;5012300;28;20229;-82
2021/04/11 11:08:25;;;;;;;5.27;4.50;;;8.00;99.90;;;;;;5010262;28;20299;-81
2021/04/11 11:11:55;;;;;;;6.40;4.90;;;7.90;99.90;;;;;;5000279;28;20305;-82
2021/04/11 11:15:16;;;;;;;6.20;4.80;;;7.90;99.90;;;;;;4918861;29;20312;-80
2021/04/11 11:18:09;;;;;;;6.83;4.93;;;7.90;99.90;;;;;;4931655;28;20239;-80
2021/04/11 11:20:54;;;;;;;6.90;4.60;;;7.90;99.90;;;;;;5007252;28;20631;-80
2021/04/11 11:24:16;;;;;;;4.97;3.73;;;7.90;99.90;;;;;;5010211;28;20269;-80
2021/04/11 11:27:19;;;;;;;5.97;4.00;;;7.80;99.90;;;;;;4932227;29;20674;-80
2021/04/11 11:30:16;;;;;;;5.20;4.00;;;7.90;99.90;;;;;;4994669;28;20320;-80
2021/04/11 11:33:00;;;;;;;5.20;3.40;;;8.00;99.90;;;;;;5006706;28;20230;-79
2021/04/11 11:35:29;;;;;;;4.30;3.47;;;8.00;99.90;;;;;;5004747;28;20237;-79
2021/04/11 11:38:09;;;;;;;3.90;3.27;;;8.00;99.90;;;;;;5021296;28;20241;-78
2021/04/11 11:40:48;;;;;;;4.63;3.90;;;7.90;99.90;;;;;;5008077;28;20249;-79
2021/04/11 11:43:26;;;;;;;4.73;3.77;;;8.00;99.90;;;;;;5005166;28;20244;-79
2021/04/11 11:46:16;;;;;;;4.13;3.70;;;8.10;99.90;;;;;;5003874;28;20755;-78
2021/04/11 11:49:07;;;;;;;4.47;4.07;;;8.30;99.90;;;;;;5009099;28;20229;-79
2021/04/11 11:51:51;;;;;;;6.57;4.47;;;8.20;99.90;;;;;;5006021;28;20245;-79
2021/04/11 11:54:26;;;;;;;4.90;4.27;;;8.10;99.90;;;;;;5012584;28;20263;-79
2021/04/11 11:57:11;;;;;;;4.30;3.90;;;8.10;99.90;;;;;;5010210;28;20294;-80
2021/04/11 11:59:43;;;;;;;4.10;3.80;;;7.90;99.90;;;;;;5013073;28;20244;-80
2021/04/11 12:02:29;;;;;;;4.53;4.13;;;7.70;99.90;;;;;;5026696;28;20247;-79
2021/04/11 12:05:07;;;;;;;5.83;4.00;;;7.60;99.90;;;;;;5007907;28;20242;-80
2021/04/11 12:07:42;;;;;;;5.23;4.30;;;7.60;99.90;;;;;;5012987;28;20307;-79
2021/04/11 12:10:19;;;;;;;7.00;4.60;;;7.70;99.90;;;;;;5015561;28;20309;-80
2021/04/11 12:13:59;;;;;;;5.20;4.70;;;7.60;99.90;;;;;;5012073;28;20380;-80
2021/04/11 12:16:38;;;;;;;4.50;3.87;;;7.60;99.90;;;;;;5008849;28;20237;-80
2021/04/11 12:19:17;;;;;;;4.93;4.40;;;7.50;99.90;;;;;;5008129;28;20236;-80
2021/04/11 12:21:52;;;;;;;4.30;3.43;;;7.50;99.90;;;;;;5011290;28;20256;-79
2021/04/11 12:24:25;;;;;;;4.47;2.70;;;7.50;99.90;;;;;;5007984;28;20244;-79
2021/04/11 12:26:55;;;;;;;4.87;2.20;;;7.50;99.90;;;;;;5005858;28;20295;-80
2021/04/11 12:29:26;;;;;;;2.43;2.00;;;7.40;99.90;;;;;;5005865;28;20250;-80
2021/04/11 12:33:07;;;;;;;3.90;2.10;;;7.30;99.90;;;;;;5007917;28;20233;-80
2021/04/11 12:35:40;;;;;;;2.60;1.90;;;7.30;99.90;;;;;;5002424;28;20307;-79
2021/04/11 12:38:20;;;;;;;2.37;1.60;;;7.40;99.90;;;;;;5003737;28;20872;-79
2021/04/11 12:40:58;;;;;;;2.20;1.70;;;7.40;99.90;;;;;;5007509;28;20252;-79
2021/04/11 12:43:37;;;;;;;2.97;1.53;;;7.40;99.90;;;;;;5013338;28;20772;-79
2021/04/11 12:46:16;;;;;;;1.50;1.40;;;7.40;99.90;;;;;;5009631;28;20956;-79
2021/04/11 12:48:58;;;;;;;1.53;1.33;;;7.30;99.90;;;;;;5013789;28;20241;-79
2021/04/11 12:51:33;;;;;;;2.50;1.37;;;7.30;99.90;;;;;;5006214;28;20248;-79
2021/04/11 12:54:12;;;;;;;3.30;1.50;;;7.20;99.90;;;;;;5008340;28;20244;-80
2021/04/11 12:56:43;;;;;;;1.50;1.40;;;7.10;99.90;;;;;;4982740;28;20693;-78
2021/04/11 12:59:26;;;;;;;2.65;1.55;;;7.10;99.90;;;;;;665556;28;10002028;-80
2021/04/11 13:01:57;;;;;;;3.00;1.40;;;7.00;99.90;;;;;;5015009;28;20463;-80
2021/04/11 13:04:31;;;;;;;2.60;1.73;;;7.00;99.90;;;;;;5014147;28;20311;-81
2021/04/11 13:07:07;;;;;;;4.40;1.90;;;7.00;99.90;;;;;;5013808;28;20252;-79
2021/04/11 13:10:01;;;;;;;2.13;1.80;;;6.90;99.90;;;;;;5016448;28;20256;-79
2021/04/11 13:12:40;;;;;;;5.67;2.03;;;6.80;99.90;;;;;;5011024;28;20245;-80
2021/04/11 13:15:20;;;;;;;3.50;2.20;;;6.80;99.90;;;;;;5009886;28;20241;-80
2021/04/11 13:18:01;;;;;;;3.30;2.00;;;6.70;99.90;;;;;;5030159;28;20696;-81
2021/04/11 13:20:37;;;;;;;4.63;2.10;;;6.80;99.90;;;;;;5020451;28;20292;-81
2021/04/11 13:23:10;;;;;;;2.63;1.90;;;6.90;99.90;;;;;;5019442;28;20237;-79
2021/04/11 13:25:45;;;;;;;3.07;2.13;;;6.90;99.90;;;;;;5012882;28;21015;-79
2021/04/11 13:28:27;;;;;;;2.80;2.03;;;7.00;99.90;;;;;;5007159;28;20247;-78
2021/04/11 13:31:09;;;;;;;2.50;2.00;;;7.00;99.90;;;;;;5010922;28;20237;-78
2021/04/11 13:33:49;;;;;;;2.70;2.00;;;6.90;99.90;;;;;;5007143;28;20237;-79
2021/04/11 13:36:33;;;;;;;3.70;2.20;;;6.80;99.90;;;;;;5005576;28;20245;-80
2021/04/11 13:39:06;;;;;;;3.33;1.87;;;6.80;99.90;;;;;;5009712;28;20581;-78
2021/04/11 13:42:07;;;;;;;2.70;1.80;;;6.80;99.90;;;;;;5009039;28;20267;-80
2021/04/11 13:44:42;;;;;;;2.53;1.80;;;7.00;99.90;;;;;;5011655;28;20241;-79
2021/04/11 13:47:21;;;;;;;3.13;1.67;;;7.00;99.90;;;;;;5010467;28;20233;-79
2021/04/11 13:49:58;;;;;;;2.43;1.70;;;7.00;99.90;;;;;;5010294;28;20237;-80
2021/04/11 13:52:37;;;;;;;2.13;1.60;;;6.90;99.90;;;;;;5009507;28;20640;-78
2021/04/11 13:55:15;;;;;;;2.30;1.50;;;6.90;99.90;;;;;;5010513;28;20236;-80
2021/04/11 13:57:53;;;;;;;1.93;1.70;;;6.80;99.90;;;;;;5010716;28;20828;-79
2021/04/11 14:00:34;;;;;;;1.83;1.40;;;6.90;99.90;;;;;;4989815;28;20248;-79